Time;durP1;ratioP1;P1;durP2;ratioP2;P2;SDS_P1;SDS_P2;PMS_P1;PMS_P2;Temp;Humidity;BMP_temperature;BMP_pressure;BME280_temperature;BME280_humidity;BME280_pressure;Samples;Min_cycle;Max_cycle;Signal;HPM_P1;HPM_P2
2022/01/07 00:00:22;;;;;;;0.10;0.10;;;-0.50;99.90;;;-0.68;100.00;100677.66;4923072;28;20226;-79
2022/01/07 00:02:56;;;;;;;0.10;0.10;;;-0.50;99.90;;;-0.64;100.00;100686.50;4932031;28;20233;-79
2022/01/07 00:05:30;;;;;;;0.10;0.10;;;-0.50;99.90;;;-0.62;100.00;100682.28;4968922;28;20206;-79
2022/01/07 00:07:58;;;;;;;0.10;0.10;;;-0.50;99.90;;;-0.60;100.00;100677.19;4974043;28;20209;-79
2022/01/07 00:10:26;;;;;;;0.10;0.10;;;-0.40;99.90;;;-0.59;100.00;100676.38;4950670;29;20210;-79
2022/01/07 00:12:54;;;;;;;0.10;0.10;;;-0.40;99.90;;;-0.55;100.00;100681.84;4928251;28;20233;-80
2022/01/07 00:15:22;;;;;;;0.10;0.10;;;-0.40;99.90;;;-0.63;100.00;100657.13;4937367;28;20224;-79
2022/01/07 00:17:51;;;;;;;0.10;0.10;;;-0.40;99.90;;;-0.62;100.00;100665.81;4930265;28;20206;-80
2022/01/07 00:20:19;;;;;;;0.10;0.10;;;-0.40;99.90;;;-0.66;100.00;100662.16;4945235;29;20209;-79
2022/01/07 00:22:49;;;;;;;0.10;0.10;;;-0.40;99.90;;;-0.73;100.00;100653.13;4928515;28;20217;-80
2022/01/07 00:25:18;;;;;;;0.20;0.20;;;-0.40;99.90;;;-0.68;100.00;100666.38;4955785;28;20209;-80
2022/01/07 00:27:46;;;;;;;0.20;0.20;;;-0.50;99.90;;;-0.68;100.00;100666.38;4942864;28;20216;-79
2022/01/07 00:30:15;;;;;;;0.10;0.10;;;-0.40;99.90;;;-0.75;100.00;100654.72;4937068;29;20210;-79
2022/01/07 00:32:47;;;;;;;0.10;0.10;;;-0.40;99.90;;;-0.67;100.00;100661.25;4972385;28;20225;-79
2022/01/07 00:35:18;;;;;;;0.10;0.10;;;-0.50;99.90;;;-0.61;100.00;100660.72;4940791;28;20225;-79
2022/01/07 00:37:48;;;;;;;0.10;0.10;;;-0.40;99.90;;;-0.59;100.00;100664.28;4939423;28;20457;-79
2022/01/07 00:40:22;;;;;;;0.10;0.10;;;-0.40;99.90;;;-0.66;100.00;100652.66;4955568;28;20543;-79
2022/01/07 00:42:52;;;;;;;0.10;0.10;;;-0.40;99.90;;;-0.64;100.00;100650.16;4936923;28;20236;-79
2022/01/07 00:45:23;;;;;;;0.10;0.10;;;-0.40;99.90;;;-0.67;100.00;100658.66;4938572;28;20217;-79
2022/01/07 00:47:53;;;;;;;0.10;0.10;;;-0.40;99.90;;;-0.57;100.00;100677.38;4920311;28;20216;-79
2022/01/07 00:50:24;;;;;;;0.10;0.10;;;-0.40;99.90;;;-0.65;100.00;100667.44;4934942;28;20201;-79
2022/01/07 00:52:52;;;;;;;0.20;0.20;;;-0.40;99.90;;;-0.66;100.00;100664.75;4949090;28;20243;-79
2022/01/07 00:55:20;;;;;;;0.20;0.20;;;-0.40;99.90;;;-0.71;100.00;100659.28;4924469;28;20233;-79
2022/01/07 00:57:49;;;;;;;0.10;0.10;;;-0.40;99.90;;;-0.70;100.00;100665.38;4934452;29;20216;-80
2022/01/07 01:00:20;;;;;;;0.20;0.20;;;-0.50;99.90;;;-0.65;100.00;100675.22;4938359;28;20260;-79
2022/01/07 01:02:49;;;;;;;0.10;0.10;;;-0.40;99.90;;;-0.66;100.00;100672.53;4952712;29;20244;-78
2022/01/07 01:05:19;;;;;;;0.20;0.20;;;-0.50;99.90;;;-0.68;100.00;100663.75;4936279;23;20225;-80
2022/01/07 01:07:47;;;;;;;0.20;0.20;;;-0.40;99.90;;;-0.68;100.00;100663.75;4946761;28;20213;-81
2022/01/07 01:10:19;;;;;;;0.20;0.20;;;-0.40;99.90;;;-0.57;100.00;100678.25;4965726;28;20205;-81
2022/01/07 01:12:49;;;;;;;0.10;0.10;;;-0.40;99.90;;;-0.55;100.00;100673.16;4963479;28;20225;-81
2022/01/07 01:15:22;;;;;;;0.10;0.10;;;-0.40;99.90;;;-0.51;100.00;100672.50;4961273;28;20239;-81
2022/01/07 01:17:52;;;;;;;0.10;0.10;;;-0.40;99.90;;;-0.51;100.00;100675.13;4939109;28;20209;-81
2022/01/07 01:20:21;;;;;;;0.10;0.10;;;-0.40;99.90;;;-0.54;100.00;100668.03;4954012;28;20205;-82
2022/01/07 01:22:49;;;;;;;0.10;0.10;;;-0.30;99.90;;;-0.48;100.00;100676.19;4928915;28;20887;-81
2022/01/07 01:25:17;;;;;;;0.20;0.20;;;-0.30;99.90;;;-0.44;100.00;100670.34;4951526;28;20244;-81
2022/01/07 01:27:45;;;;;;;0.20;0.20;;;-0.30;99.90;;;-0.39;100.00;100674.09;4923333;28;20208;-81
2022/01/07 01:30:19;;;;;;;0.20;0.20;;;-0.30;99.90;;;-0.35;100.00;100672.56;4931783;28;20236;-80
2022/01/07 01:32:49;;;;;;;0.10;0.10;;;-0.30;99.90;;;-0.35;100.00;100660.47;4935006;28;20224;-81
2022/01/07 01:35:18;;;;;;;0.10;0.10;;;-0.20;99.90;;;-0.32;100.00;100665.84;4966958;28;20244;-81
2022/01/07 01:37:49;;;;;;;0.20;0.20;;;-0.20;99.90;;;-0.32;100.00;100665.84;4926315;28;20201;-82
2022/01/07 01:40:19;;;;;;;0.20;0.20;;;-0.10;99.90;;;-0.40;100.00;100653.22;4921459;28;20218;-81
2022/01/07 01:42:52;;;;;;;0.10;0.10;;;-0.10;99.90;;;-0.43;100.00;100648.75;4935860;28;20664;-81
2022/01/07 01:45:21;;;;;;;0.13;0.13;;;-0.10;99.90;;;-0.39;100.00;100636.84;4920602;28;20225;-82
2022/01/07 01:47:54;;;;;;;0.10;0.10;;;-0.10;99.90;;;-0.31;100.00;100648.53;4934361;28;20205;-81
2022/01/07 01:50:23;;;;;;;0.20;0.20;;;-0.10;99.90;;;-0.43;100.00;100630.56;4940946;28;20228;-82
2022/01/07 01:52:54;;;;;;;0.10;0.10;;;-0.10;99.90;;;-0.42;100.00;100631.47;4959568;28;20222;-81
2022/01/07 01:55:25;;;;;;;0.35;0.35;;;-0.10;99.90;;;-0.43;100.00;100630.56;4939238;29;20241;-81
2022/01/07 01:57:54;;;;;;;0.10;0.10;;;-0.10;99.90;;;-0.42;100.00;100631.47;4927800;28;20205;-81
2022/01/07 02:00:25;;;;;;;0.20;0.20;;;-0.10;99.90;;;-0.23;100.00;100654.16;4926392;28;20206;-81
2022/01/07 02:02:53;;;;;;;0.10;0.10;;;-0.10;99.90;;;-0.29;100.00;100643.44;4961084;28;20205;-80
2022/01/07 02:05:22;;;;;;;0.10;0.10;;;-0.10;99.90;;;-0.39;100.00;100642.03;4959095;28;20244;-81
2022/01/07 02:07:50;;;;;;;0.20;0.20;;;-0.10;99.90;;;-0.33;100.00;100643.25;4958065;28;20212;-81
2022/01/07 02:10:18;;;;;;;0.10;0.10;;;-0.10;99.90;;;-0.31;100.00;100638.16;4959833;28;20237;-81
2022/01/07 02:12:46;;;;;;;0.20;0.20;;;-0.10;99.90;;;-0.31;100.00;100635.56;4940169;29;20206;-81
2022/01/07 02:15:15;;;;;;;0.10;0.10;;;-0.10;99.90;;;-0.32;100.00;100628.56;4959551;28;20225;-81
2022/01/07 02:17:47;;;;;;;0.20;0.20;;;-0.10;99.90;;;-0.34;100.00;100625.88;4954996;28;20210;-81
2022/01/07 02:20:20;;;;;;;0.10;0.10;;;-0.10;99.90;;;-0.41;100.00;100617.66;4924753;29;20202;-81
2022/01/07 02:22:48;;;;;;;0.10;0.10;;;-0.10;99.90;;;-0.47;100.00;100609.53;4930970;28;20217;-81
2022/01/07 02:25:16;;;;;;;0.20;0.20;;;-0.20;99.90;;;-0.51;100.00;100598.06;4921522;28;20225;-81
2022/01/07 02:27:45;;;;;;;0.10;0.10;;;-0.20;99.90;;;-0.51;100.00;100598.06;4942676;28;20213;-81
2022/01/07 02:30:18;;;;;;;0.20;0.20;;;-0.20;99.90;;;-0.55;100.00;100593.53;4923770;28;20228;-81
2022/01/07 02:32:47;;;;;;;0.10;0.10;;;-0.20;99.90;;;-0.51;100.00;100607.56;4959618;28;20218;-81
2022/01/07 02:35:17;;;;;;;0.20;0.20;;;-0.30;99.90;;;-0.56;100.00;100589.13;4941081;28;20229;-81
2022/01/07 02:37:45;;;;;;;0.10;0.10;;;-0.30;99.90;;;-0.48;100.00;100594.75;4958488;28;20218;-81
2022/01/07 02:40:14;;;;;;;0.10;0.10;;;-0.30;99.90;;;-0.53;100.00;100593.59;4944226;28;20213;-81
2022/01/07 02:42:42;;;;;;;0.10;0.10;;;-0.30;99.90;;;-0.48;100.00;100615.53;4925919;28;20556;-81
2022/01/07 02:45:13;;;;;;;0.10;0.10;;;-0.30;99.90;;;-0.49;100.00;100614.66;4971075;28;20240;-81
2022/01/07 02:47:50;;;;;;;0.22;0.22;;;-0.20;99.90;;;-0.51;100.00;100625.75;4941258;29;20210;-81
2022/01/07 02:50:29;;;;;;;0.20;0.20;;;-0.30;99.90;;;-0.50;100.00;100638.84;4938735;28;20215;-81
2022/01/07 02:52:57;;;;;;;0.17;0.17;;;-0.30;99.90;;;-0.55;100.00;100634.19;4937332;28;20210;-81
2022/01/07 02:55:26;;;;;;;0.10;0.10;;;-0.30;99.90;;;-0.58;100.00;100634.00;4966687;28;20245;-81
2022/01/07 02:57:55;;;;;;;0.20;0.20;;;-0.30;99.90;;;-0.59;100.00;100640.91;4936011;28;20206;-81
2022/01/07 03:00:25;;;;;;;0.10;0.10;;;-0.20;99.90;;;-0.53;100.00;100648.16;4923790;28;20201;-81
2022/01/07 03:02:55;;;;;;;0.10;0.10;;;-0.30;99.90;;;-0.49;100.00;100647.53;4983797;28;20217;-82
2022/01/07 03:05:24;;;;;;;0.10;0.10;;;-0.30;99.90;;;-0.55;100.00;100644.56;4930701;28;20249;-81
2022/01/07 03:07:53;;;;;;;0.10;0.10;;;-0.30;99.90;;;-0.53;100.00;100642.97;4939354;28;20214;-82
2022/01/07 03:10:31;;;;;;;0.10;0.10;;;-0.30;99.90;;;-0.46;100.00;100656.38;4982052;28;20213;-81
2022/01/07 03:13:03;;;;;;;0.10;0.10;;;-0.30;99.90;;;-0.49;100.00;100651.00;4936454;28;20235;-81
2022/01/07 03:15:35;;;;;;;0.20;0.20;;;-0.20;99.90;;;-0.46;100.00;100661.56;4952663;28;20218;-81
2022/01/07 03:18:08;;;;;;;0.10;0.10;;;-0.20;99.90;;;-0.45;100.00;100668.56;4925720;28;20209;-81
2022/01/07 03:20:39;;;;;;;0.10;0.10;;;-0.20;99.90;;;-0.44;100.00;100662.56;4925407;28;20201;-81
2022/01/07 03:23:12;;;;;;;0.10;0.10;;;-0.20;99.90;;;-0.45;100.00;100665.06;4939417;28;20221;-82
2022/01/07 03:25:46;;;;;;;0.30;0.30;;;-0.20;99.90;;;-0.45;100.00;100657.28;4927412;28;20252;-81
2022/01/07 03:28:14;;;;;;;0.47;0.47;;;-0.20;99.90;;;-0.47;100.00;100662.38;4936170;28;20236;-82
2022/01/07 03:30:42;;;;;;;0.10;0.10;;;-0.20;99.90;;;-0.49;100.00;100660.50;4970310;28;20209;-81
2022/01/07 03:33:10;;;;;;;0.10;0.10;;;-0.20;99.90;;;-0.51;100.00;100664.72;4967524;28;20221;-81
2022/01/07 03:35:39;;;;;;;0.10;0.10;;;-0.20;99.90;;;-0.54;100.00;100668.03;4922001;28;20233;-81
2022/01/07 03:38:08;;;;;;;0.10;0.10;;;-0.20;99.90;;;-0.51;100.00;100667.31;4956245;28;20220;-81
2022/01/07 03:40:36;;;;;;;0.10;0.10;;;-0.20;99.90;;;-0.47;100.00;100677.97;4912352;28;20213;-81
2022/01/07 03:43:04;;;;;;;0.10;0.10;;;-0.20;99.90;;;-0.47;100.00;100680.56;4942229;28;20201;-81
2022/01/07 03:45:33;;;;;;;0.20;0.20;;;-0.20;99.90;;;-0.48;100.00;100683.97;4955675;28;20229;-81
2022/01/07 03:48:01;;;;;;;0.20;0.20;;;-0.20;99.90;;;-0.48;100.00;100685.69;4947602;28;20212;-80
2022/01/07 03:50:29;;;;;;;0.10;0.10;;;-0.20;99.90;;;-0.52;100.00;100689.81;4950215;28;20221;-81
2022/01/07 03:52:59;;;;;;;0.20;0.20;;;-0.20;99.90;;;-0.53;100.00;100695.81;4921939;28;20201;-81
2022/01/07 03:55:30;;;;;;;0.20;0.20;;;-0.20;99.90;;;-0.61;100.00;100694.47;4938027;28;20253;-81
2022/01/07 03:57:59;;;;;;;0.20;0.20;;;-0.20;99.90;;;-0.58;100.00;100696.34;4954754;28;20205;-80
2022/01/07 04:00:36;;;;;;;0.20;0.20;;;-0.30;99.90;;;-0.56;100.00;100699.94;4954107;28;20209;-81
2022/01/07 04:03:10;;;;;;;0.10;0.10;;;-0.30;99.90;;;-0.55;100.00;100702.63;4939013;28;20208;-81
2022/01/07 04:05:38;;;;;;;0.10;0.10;;;-0.30;99.90;;;-0.49;100.00;100709.88;4921104;28;20252;-81
2022/01/07 04:08:07;;;;;;;0.30;0.30;;;-0.20;99.90;;;-0.51;100.00;100698.50;4917381;28;20220;-81
2022/01/07 04:10:36;;;;;;;0.15;0.15;;;-0.20;99.90;;;-0.53;100.00;100701.00;4917456;28;20213;-80
2022/01/07 04:13:05;;;;;;;0.20;0.20;;;-0.20;99.90;;;-0.57;100.00;100705.94;4923798;28;20579;-81
2022/01/07 04:15:33;;;;;;;0.38;0.38;;;-0.20;99.90;;;-0.65;100.00;100698.59;4921937;28;20221;-81
2022/01/07 04:18:02;;;;;;;0.10;0.10;;;-0.30;99.90;;;-0.67;100.00;100705.41;4939954;28;20209;-81
2022/01/07 04:20:34;;;;;;;0.20;0.20;;;-0.30;99.90;;;-0.63;100.00;100705.59;4920521;29;20206;-81
2022/01/07 04:23:05;;;;;;;0.10;0.10;;;-0.30;99.90;;;-0.66;100.00;100715.00;4939663;28;20210;-81
2022/01/07 04:25:34;;;;;;;0.20;0.20;;;-0.30;99.90;;;-0.63;100.00;100718.56;4932511;28;20236;-81
2022/01/07 04:28:07;;;;;;;0.20;0.20;;;-0.30;99.90;;;-0.67;100.00;100713.19;4923518;28;20208;-81
2022/01/07 04:30:41;;;;;;;0.10;0.10;;;-0.30;99.90;;;-0.62;100.00;100720.34;4915511;29;20624;-81
2022/01/07 04:33:13;;;;;;;0.20;0.20;;;-0.30;99.90;;;-0.57;100.00;100724.13;4940298;29;20295;-80
2022/01/07 04:35:43;;;;;;;0.20;0.20;;;-0.30;99.90;;;-0.61;100.00;100728.25;4941076;28;20233;-81
2022/01/07 04:38:11;;;;;;;0.20;0.20;;;-0.30;99.90;;;-0.66;100.00;100712.41;4933898;28;20213;-80
2022/01/07 04:40:39;;;;;;;0.20;0.20;;;-0.40;99.90;;;-0.66;100.00;100720.19;4924737;28;20202;-81
2022/01/07 04:43:07;;;;;;;0.20;0.20;;;-0.40;99.90;;;-0.69;100.00;100716.50;4941191;28;20201;-81
2022/01/07 04:45:36;;;;;;;0.20;0.20;;;-0.40;99.90;;;-0.65;100.00;100721.06;4927161;28;20225;-81
2022/01/07 04:48:05;;;;;;;0.20;0.20;;;-0.40;99.90;;;-0.70;100.00;100707.81;4958608;28;20214;-81
2022/01/07 04:50:33;;;;;;;0.20;0.20;;;-0.40;99.90;;;-0.70;100.00;100701.75;4958340;28;20656;-81
2022/01/07 04:53:02;;;;;;;0.20;0.20;;;-0.40;99.90;;;-0.70;100.00;100699.13;4937111;28;20201;-80
2022/01/07 04:55:37;;;;;;;0.17;0.17;;;-0.40;99.90;;;-0.70;100.00;100696.53;4943099;28;20235;-80
2022/01/07 04:58:11;;;;;;;0.10;0.10;;;-0.40;99.90;;;-0.67;100.00;100702.81;4954884;28;20212;-80
2022/01/07 05:00:42;;;;;;;0.20;0.20;;;-0.40;99.90;;;-0.66;100.00;100695.91;4940601;28;20197;-80
2022/01/07 05:03:11;;;;;;;0.20;0.20;;;-0.40;99.90;;;-0.58;100.00;100697.25;4943793;28;20208;-80
2022/01/07 05:05:39;;;;;;;0.30;0.30;;;-0.40;99.90;;;-0.57;100.00;100699.03;4941666;28;20229;-81
2022/01/07 05:08:08;;;;;;;0.20;0.20;;;-0.40;99.90;;;-0.54;100.00;100695.72;4927526;28;20208;-81
2022/01/07 05:10:37;;;;;;;0.20;0.20;;;-0.30;99.90;;;-0.53;100.00;100689.72;4933065;29;20209;-81
2022/01/07 05:13:05;;;;;;;0.45;0.45;;;-0.30;99.90;;;-0.47;100.00;100690.06;4944779;28;20220;-81
2022/01/07 05:15:33;;;;;;;0.20;0.20;;;-0.30;99.90;;;-0.37;100.00;100694.97;4938756;28;20306;-81
2022/01/07 05:18:02;;;;;;;0.20;0.20;;;-0.30;99.90;;;-0.38;100.00;100694.06;4914298;28;20201;-82
2022/01/07 05:20:30;;;;;;;0.20;0.20;;;-0.20;99.90;;;-0.33;100.00;100690.03;4938539;28;20212;-81
2022/01/07 05:22:58;;;;;;;0.20;0.20;;;-0.20;99.90;;;-0.34;100.00;100675.25;4941610;28;20208;-81
2022/01/07 05:25:27;;;;;;;0.20;0.20;;;-0.20;99.90;;;-0.30;100.00;100678.91;4945264;28;20233;-81
2022/01/07 05:27:55;;;;;;;0.20;0.20;;;-0.10;99.90;;;-0.27;100.00;100675.59;4947090;28;20213;-81
2022/01/07 05:30:23;;;;;;;0.20;0.20;;;-0.10;99.90;;;-0.26;100.00;100672.19;4954090;28;20197;-81
2022/01/07 05:32:51;;;;;;;0.20;0.20;;;-0.10;99.90;;;-0.23;100.00;100672.34;4956562;28;20214;-81
2022/01/07 05:35:19;;;;;;;0.82;0.82;;;-0.10;99.90;;;-0.21;100.00;100663.84;4944280;28;20309;-81
2022/01/07 05:37:47;;;;;;;0.10;0.10;;;0.00;99.90;;;-0.20;100.00;100663.03;4925876;28;20374;-81
2022/01/07 05:40:15;;;;;;;0.10;0.10;;;0.10;99.90;;;-0.17;100.00;100652.81;4974580;28;20205;-81
2022/01/07 05:42:43;;;;;;;0.20;0.20;;;0.00;99.90;;;-0.17;100.00;100646.72;4942578;28;20197;-81
2022/01/07 05:45:11;;;;;;;0.20;0.20;;;0.00;99.90;;;-0.18;100.00;100640.63;4930044;28;20226;-81
2022/01/07 05:47:39;;;;;;;0.20;0.20;;;0.00;99.90;;;-0.18;100.00;100631.91;4945225;28;20214;-80
2022/01/07 05:50:08;;;;;;;0.20;0.20;;;0.00;99.90;;;-0.18;100.00;100630.22;4960075;28;20206;-82
2022/01/07 05:52:37;;;;;;;0.20;0.20;;;0.00;99.90;;;-0.16;100.00;100630.31;4925052;28;20210;-81
2022/01/07 05:55:06;;;;;;;0.90;0.90;;;0.00;99.90;;;-0.17;100.00;100621.59;4938948;28;20225;-80
2022/01/07 05:57:35;;;;;;;0.20;0.20;;;0.10;99.90;;;-0.12;100.00;100619.25;4933790;28;20620;-81
2022/01/07 06:00:07;;;;;;;0.20;0.20;;;0.10;99.90;;;-0.11;100.00;100608.06;4945765;28;20202;-82
2022/01/07 06:02:39;;;;;;;0.10;0.10;;;0.10;99.90;;;-0.08;100.00;100613.41;4958849;28;20577;-80
2022/01/07 06:05:08;;;;;;;0.20;0.20;;;0.10;99.90;;;0.16;100.00;100632.06;4936493;28;20229;-82
2022/01/07 06:07:36;;;;;;;0.20;0.20;;;0.20;99.90;;;-0.02;100.00;100609.44;4929674;28;20209;-80
2022/01/07 06:10:08;;;;;;;0.20;0.20;;;0.20;99.90;;;-0.04;100.00;100599.78;4945597;28;20216;-80
2022/01/07 06:12:36;;;;;;;0.20;0.20;;;0.20;99.90;;;-0.02;100.00;100601.63;4943678;28;20201;-80
2022/01/07 06:15:06;;;;;;;0.10;0.10;;;0.20;99.90;;;-0.03;100.00;100597.25;4951389;28;20226;-80
2022/01/07 06:17:34;;;;;;;0.17;0.17;;;0.20;99.90;;;0.00;100.00;100591.34;4942127;28;20221;-80
2022/01/07 06:20:05;;;;;;;0.20;0.20;;;0.20;99.90;;;0.04;100.00;100595.91;4942703;29;20216;-80
2022/01/07 06:22:34;;;;;;;0.20;0.20;;;0.20;99.90;;;0.07;100.00;100593.47;4929944;29;20202;-80
2022/01/07 06:25:04;;;;;;;0.20;0.20;;;0.30;99.90;;;0.03;100.00;100582.81;4911924;29;20242;-81
2022/01/07 06:27:32;;;;;;;0.20;0.20;;;0.30;99.90;;;0.05;100.00;100587.28;4925736;29;20673;-81
2022/01/07 06:30:00;;;;;;;0.20;0.20;;;0.30;99.90;;;0.10;100.00;100584.94;4924940;29;20220;-80
2022/01/07 06:32:28;;;;;;;0.10;0.10;;;0.30;99.90;;;0.08;100.00;100581.38;4939142;28;20217;-81
2022/01/07 06:34:56;;;;;;;0.20;0.20;;;0.30;99.90;;;0.05;100.00;100576.00;4940451;29;20241;-81
2022/01/07 06:37:24;;;;;;;0.20;0.20;;;0.30;99.90;;;0.09;100.00;100581.44;4922871;29;20273;-80
2022/01/07 06:39:52;;;;;;;0.20;0.20;;;0.30;99.90;;;0.10;100.00;100574.53;4917866;29;20206;-80
2022/01/07 06:42:20;;;;;;;0.20;0.20;;;0.30;99.90;;;0.08;100.00;100577.06;4951174;28;20213;-80
2022/01/07 06:44:48;;;;;;;0.10;0.10;;;0.30;99.90;;;0.12;100.00;100572.91;4907235;29;20230;-80
2022/01/07 06:47:16;;;;;;;0.73;0.73;;;0.30;99.90;;;0.13;100.00;100569.50;4920531;29;20221;-80
2022/01/07 06:49:44;;;;;;;0.20;0.20;;;0.30;99.90;;;0.14;100.00;100576.47;4905960;29;20210;-81
2022/01/07 06:52:12;;;;;;;0.20;0.20;;;0.40;99.90;;;0.16;100.00;100572.25;4907027;29;20229;-81
2022/01/07 06:54:40;;;;;;;0.15;0.15;;;0.40;99.90;;;0.17;100.00;100576.66;4923331;29;20723;-81
2022/01/07 06:57:08;;;;;;;0.20;0.20;;;0.40;99.90;;;0.17;100.00;100577.53;4907108;29;20223;-80
2022/01/07 06:59:45;;;;;;;0.20;0.20;;;0.40;99.90;;;0.18;100.00;100579.31;4934323;29;20205;-80
2022/01/07 07:02:13;;;;;;;0.20;0.20;;;0.40;99.90;;;0.17;100.00;100572.34;4921318;29;20214;-80
2022/01/07 07:04:41;;;;;;;0.20;0.20;;;0.40;99.90;;;0.18;100.00;100568.94;4948584;23;20236;-79
2022/01/07 07:07:09;;;;;;;0.20;0.20;;;0.40;99.90;;;0.20;100.00;100577.69;4937113;29;20206;-79
2022/01/07 07:09:37;;;;;;;0.20;0.20;;;0.40;99.90;;;0.21;100.00;100574.28;4922084;29;20206;-79
2022/01/07 07:12:06;;;;;;;0.20;0.20;;;0.40;99.90;;;0.20;100.00;100572.50;4937333;29;20214;-79
2022/01/07 07:14:34;;;;;;;0.82;0.82;;;0.50;99.90;;;0.22;100.00;100569.97;4906443;29;20225;-79
2022/01/07 07:17:02;;;;;;;0.20;0.20;;;0.50;99.90;;;0.21;100.00;100561.28;4905924;29;20587;-79
2022/01/07 07:19:30;;;;;;;0.20;0.20;;;0.50;99.90;;;0.22;100.00;100568.28;4937809;29;20209;-79
2022/01/07 07:21:58;;;;;;;0.20;0.20;;;0.50;99.90;;;0.21;100.00;100556.09;4937843;29;20206;-79
2022/01/07 07:24:26;;;;;;;0.30;0.30;;;0.50;99.90;;;0.22;100.00;100564.78;4906356;29;20210;-79
2022/01/07 07:26:54;;;;;;;0.22;0.22;;;0.50;99.90;;;0.23;100.00;100559.66;4921956;29;20233;-79
2022/01/07 07:29:22;;;;;;;0.30;0.30;;;0.50;99.90;;;0.28;100.00;100555.59;4937437;29;20209;-79
2022/01/07 07:31:51;;;;;;;0.30;0.30;;;0.50;99.90;;;0.28;100.00;100558.19;4937448;29;20218;-79
2022/01/07 07:37:07;;;;;;;0.30;0.30;;;0.50;99.90;;;0.30;100.00;100550.47;4939604;29;20229;-79
2022/01/07 07:39:36;;;;;;;0.30;0.30;;;0.50;99.90;;;0.30;100.00;100543.56;4902348;29;20279;-78
2022/01/07 07:42:05;;;;;;;0.30;0.30;;;0.50;99.90;;;0.31;100.00;100545.34;4924208;29;20198;-79
2022/01/07 07:44:36;;;;;;;0.20;0.20;;;0.50;99.90;;;0.35;100.00;100549.00;4906987;29;20327;-79
2022/01/07 07:47:05;;;;;;;0.20;0.20;;;0.60;99.90;;;0.35;100.00;100538.59;4898475;29;20685;-79
2022/01/07 07:49:33;;;;;;;0.20;0.20;;;0.60;99.90;;;0.38;100.00;100537.84;4909900;29;20255;-79
2022/01/07 07:52:04;;;;;;;0.30;0.30;;;0.60;99.90;;;0.42;100.00;100548.50;4902755;28;20201;-79
2022/01/07 07:54:32;;;;;;;0.30;0.30;;;0.60;99.90;;;0.42;100.00;100540.69;4902074;29;20202;-79
2022/01/07 07:57:00;;;;;;;0.30;0.30;;;0.70;99.90;;;0.43;100.00;100538.97;4934558;29;20217;-79
2022/01/07 07:59:28;;;;;;;0.30;0.30;;;0.70;99.90;;;0.50;100.00;100547.16;4900536;29;20202;-79
2022/01/07 08:01:56;;;;;;;0.30;0.30;;;0.70;99.90;;;0.47;100.00;100541.81;4893910;29;20218;-79
2022/01/07 08:04:24;;;;;;;0.20;0.20;;;0.70;99.90;;;0.50;100.00;100547.16;4920316;29;20299;-79
2022/01/07 08:06:52;;;;;;;0.20;0.20;;;0.70;99.90;;;0.53;100.00;100544.72;4889222;29;20206;-78
2022/01/07 08:09:21;;;;;;;0.20;0.20;;;0.70;99.90;;;0.56;100.00;100539.69;4924863;29;20209;-80
2022/01/07 08:11:51;;;;;;;0.30;0.30;;;0.80;99.90;;;0.57;100.00;100533.66;4935674;29;20213;-79
2022/01/07 08:17:08;;;;;;;0.28;0.28;;;0.80;99.90;;;0.62;100.00;100532.16;4924783;29;20203;-80
2022/01/07 08:19:36;;;;;;;0.50;0.50;;;0.80;99.90;;;0.67;100.00;100532.41;4894782;29;20202;-80
2022/01/07 08:22:05;;;;;;;0.30;0.30;;;0.90;99.90;;;0.65;100.00;100515.81;4889646;29;20203;-80
2022/01/07 08:24:34;;;;;;;0.30;0.30;;;0.90;99.90;;;0.68;100.00;100526.38;4922210;29;20202;-80
2022/01/07 08:27:02;;;;;;;0.20;0.20;;;0.90;99.90;;;0.71;100.00;100523.03;4904399;28;20712;-79
2022/01/07 08:29:53;;;;;;;0.20;0.20;;;0.90;99.90;;;0.70;100.00;100510.84;4907502;29;20217;-80
2022/01/07 08:35:11;;;;;;;0.20;0.20;;;0.90;99.90;;;0.75;100.00;100517.16;4910993;29;20237;-80
2022/01/07 08:37:40;;;;;;;0.25;0.25;;;1.00;99.90;;;0.77;100.00;100520.72;4901764;29;20217;-80
2022/01/07 08:40:11;;;;;;;0.30;0.30;;;1.00;99.90;;;0.80;100.00;100515.69;4931097;28;20218;-80
2022/01/07 08:42:39;;;;;;;0.20;0.20;;;1.00;99.90;;;0.83;100.00;100516.72;4901936;29;20209;-79
2022/01/07 08:45:11;;;;;;;0.20;0.20;;;2.00;99.90;;;0.83;100.00;100515.81;4898119;28;20226;-79
2022/01/07 08:47:42;;;;;;;0.20;0.20;;;1.00;99.90;;;0.86;100.00;100511.66;4927834;29;20213;-79
2022/01/07 08:50:11;;;;;;;0.30;0.30;;;1.00;99.90;;;0.88;100.00;100506.53;4900851;28;20217;-79
2022/01/07 08:52:39;;;;;;;0.20;0.20;;;1.10;99.90;;;0.93;100.00;100505.94;4909867;28;20214;-79
2022/01/07 08:55:07;;;;;;;0.20;0.20;;;1.00;99.90;;;0.97;100.00;100496.56;4917445;29;20225;-79
2022/01/07 08:57:38;;;;;;;0.20;0.20;;;1.10;99.90;;;1.00;100.00;100499.31;4914267;29;20210;-79
2022/01/07 09:00:09;;;;;;;0.30;0.30;;;1.20;99.90;;;1.01;100.00;100493.28;4911235;29;20205;-79
2022/01/07 09:02:40;;;;;;;0.20;0.20;;;1.20;99.90;;;1.04;100.00;100487.34;4907743;29;20225;-78
2022/01/07 09:05:09;;;;;;;0.30;0.30;;;1.20;99.90;;;1.10;100.00;100479.81;4929923;29;20238;-79
2022/01/07 09:07:37;;;;;;;0.20;0.20;;;1.30;99.90;;;1.11;100.00;100477.28;4927658;28;20210;-79
2022/01/07 09:10:06;;;;;;;0.20;0.20;;;1.30;99.90;;;1.12;100.00;100471.25;4914395;29;20213;-79
2022/01/07 09:12:36;;;;;;;0.30;0.30;;;1.30;99.90;;;1.12;100.00;100462.53;4898691;28;20205;-79
2022/01/07 09:15:05;;;;;;;0.25;0.25;;;1.30;99.90;;;1.14;100.00;100453.09;4897020;29;20222;-79
2022/01/07 09:17:35;;;;;;;0.20;0.20;;;1.40;99.90;;;1.16;100.00;100451.44;4900914;28;20219;-79
2022/01/07 09:20:06;;;;;;;0.20;0.20;;;1.40;99.90;;;1.19;100.00;100457.69;4902354;29;20544;-79
2022/01/07 09:22:38;;;;;;;0.20;0.20;;;1.40;99.90;;;1.19;100.00;100457.69;4906971;28;20292;-79
2022/01/07 09:25:07;;;;;;;0.30;0.30;;;1.40;99.90;;;1.20;100.00;100456.88;4911209;29;20213;-79
2022/01/07 09:27:36;;;;;;;0.20;0.20;;;1.40;99.90;;;1.22;100.00;100455.22;4928617;29;20221;-79
2022/01/07 09:30:07;;;;;;;0.30;0.30;;;1.40;99.90;;;1.22;100.00;100451.72;4905254;28;20217;-79
2022/01/07 09:32:38;;;;;;;0.40;0.40;;;1.50;99.90;;;1.22;100.00;100449.13;4909230;29;20210;-79
2022/01/07 09:35:11;;;;;;;0.22;0.22;;;1.50;99.90;;;1.21;100.00;100447.34;4884772;29;20607;-79
2022/01/07 09:37:50;;;;;;;0.20;0.20;;;1.50;99.90;;;1.22;100.00;100438.72;4899227;29;20249;-79
2022/01/07 09:40:22;;;;;;;0.20;0.20;;;1.50;99.90;;;1.24;100.00;100434.47;4920535;29;20207;-79
2022/01/07 09:43:08;;;;;;;0.20;0.20;;;1.50;99.90;;;1.27;100.00;100435.50;4919063;29;20205;-78
2022/01/07 09:45:38;;;;;;;0.25;0.25;;;1.50;99.90;;;1.29;100.00;100439.06;4926046;29;20277;-77
2022/01/07 09:48:08;;;;;;;0.25;0.25;;;1.50;99.90;;;1.35;100.00;100451.50;4903522;29;20209;-77
2022/01/07 09:50:37;;;;;;;0.30;0.30;;;1.60;99.90;;;1.32;100.00;100437.44;4901558;29;20212;-77
2022/01/07 09:53:15;;;;;;;0.20;0.20;;;1.60;99.90;;;1.34;100.00;100435.81;4915332;29;20217;-77
2022/01/07 09:55:44;;;;;;;0.20;0.20;;;1.60;99.90;;;1.40;100.00;100450.00;4907312;29;20237;-78
2022/01/07 09:58:14;;;;;;;0.20;0.20;;;1.60;99.90;;;1.37;100.00;100444.66;4915403;29;20211;-79
2022/01/07 10:00:46;;;;;;;0.20;0.20;;;1.60;99.90;;;1.41;100.00;100445.69;4903850;29;20203;-79
2022/01/07 10:03:18;;;;;;;0.20;0.20;;;1.70;99.90;;;1.45;100.00;100453.72;4906315;29;20209;-79
2022/01/07 10:05:50;;;;;;;0.20;0.20;;;1.70;99.90;;;1.45;100.00;100445.91;4931666;29;20245;-78
2022/01/07 10:08:29;;;;;;;0.40;0.40;;;1.70;99.90;;;1.45;100.00;100456.31;4900869;29;20199;-78
2022/01/07 10:11:19;;;;;;;0.20;0.20;;;1.70;99.90;;;1.46;100.00;100455.50;4941958;29;20201;-79
2022/01/07 10:14:20;;;;;;;0.30;0.30;;;1.80;99.90;;;1.53;100.00;100467.97;4934617;28;20199;-79
2022/01/07 10:16:54;;;;;;;0.28;0.28;;;1.80;99.90;;;1.56;100.00;100473.34;4911619;29;20217;-79
2022/01/07 10:19:42;;;;;;;0.30;0.30;;;1.80;99.90;;;1.55;100.00;100466.34;4895760;29;20222;-79
2022/01/07 10:22:14;;;;;;;0.30;0.30;;;1.90;99.90;;;1.62;100.00;100467.50;4912544;28;20206;-79
2022/01/07 10:25:02;;;;;;;0.28;0.28;;;1.90;99.90;;;1.60;100.00;100462.22;4927169;28;20221;-78
2022/01/07 10:27:39;;;;;;;0.63;0.63;;;1.90;99.90;;;1.72;100.00;100466.19;4906760;28;20205;-79
2022/01/07 10:30:13;;;;;;;0.60;0.60;;;1.90;99.90;;;1.81;100.00;100461.41;4896759;29;20205;-79
2022/01/07 10:32:43;;;;;;;0.30;0.30;;;2.00;99.90;;;1.84;100.00;100452.00;4931255;28;20224;-79